sensor_id;sensor_type;location;lat;lon;timestamp;temperature;humidity
14850;DHT22;7517;48.400;11.770;2023-01-16T00:02:00;7.50;63.60
14850;DHT22;7517;48.400;11.770;2023-01-16T00:04:38;7.50;63.60
14850;DHT22;7517;48.400;11.770;2023-01-16T00:07:17;7.60;63.60
14850;DHT22;7517;48.400;11.770;2023-01-16T00:09:55;7.50;63.50
14850;DHT22;7517;48.400;11.770;2023-01-16T00:12:38;7.50;63.70
14850;DHT22;7517;48.400;11.770;2023-01-16T00:15:11;7.50;63.80
14850;DHT22;7517;48.400;11.770;2023-01-16T00:17:45;7.50;63.80
14850;DHT22;7517;48.400;11.770;2023-01-16T00:20:18;7.50;64.00
14850;DHT22;7517;48.400;11.770;2023-01-16T00:22:49;7.50;64.10
14850;DHT22;7517;48.400;11.770;2023-01-16T00:25:29;7.50;64.30
14850;DHT22;7517;48.400;11.770;2023-01-16T00:28:01;7.50;64.40
14850;DHT22;7517;48.400;11.770;2023-01-16T00:30:39;7.50;64.40
14850;DHT22;7517;48.400;11.770;2023-01-16T00:33:12;7.50;64.10
14850;DHT22;7517;48.400;11.770;2023-01-16T00:35:59;7.50;64.10
14850;DHT22;7517;48.400;11.770;2023-01-16T00:38:32;7.50;64.10
14850;DHT22;7517;48.400;11.770;2023-01-16T00:41:10;7.50;64.10
14850;DHT22;7517;48.400;11.770;2023-01-16T00:43:44;7.50;64.00
14850;DHT22;7517;48.400;11.770;2023-01-16T00:46:14;7.50;63.90
14850;DHT22;7517;48.400;11.770;2023-01-16T00:48:49;7.50;63.90
14850;DHT22;7517;48.400;11.770;2023-01-16T00:51:20;7.50;63.80
14850;DHT22;7517;48.400;11.770;2023-01-16T00:53:48;7.50;63.70
14850;DHT22;7517;48.400;11.770;2023-01-16T00:56:27;7.50;63.60
14850;DHT22;7517;48.400;11.770;2023-01-16T00:59:00;7.50;63.80
14850;DHT22;7517;48.400;11.770;2023-01-16T01:01:33;7.50;63.80
14850;DHT22;7517;48.400;11.770;2023-01-16T01:04:03;7.50;63.60
14850;DHT22;7517;48.400;11.770;2023-01-16T01:06:39;7.50;63.50
14850;DHT22;7517;48.400;11.770;2023-01-16T01:09:15;7.50;63.40
14850;DHT22;7517;48.400;11.770;2023-01-16T01:11:46;7.60;63.20
14850;DHT22;7517;48.400;11.770;2023-01-16T01:14:14;7.50;63.20
14850;DHT22;7517;48.400;11.770;2023-01-16T01:16:47;7.60;63.20
14850;DHT22;7517;48.400;11.770;2023-01-16T01:19:22;7.50;63.90
14850;DHT22;7517;48.400;11.770;2023-01-16T01:21:53;7.60;63.30
14850;DHT22;7517;48.400;11.770;2023-01-16T01:24:26;7.60;63.30
14850;DHT22;7517;48.400;11.770;2023-01-16T01:27:03;7.50;63.30
14850;DHT22;7517;48.400;11.770;2023-01-16T01:32:35;7.50;63.30
14850;DHT22;7517;48.400;11.770;2023-01-16T01:35:07;7.50;63.50
14850;DHT22;7517;48.400;11.770;2023-01-16T01:37:44;7.50;63.50
14850;DHT22;7517;48.400;11.770;2023-01-16T01:40:28;7.60;63.60
14850;DHT22;7517;48.400;11.770;2023-01-16T01:43:09;7.50;63.50
14850;DHT22;7517;48.400;11.770;2023-01-16T01:45:56;7.50;63.60
14850;DHT22;7517;48.400;11.770;2023-01-16T01:48:32;7.50;63.70
14850;DHT22;7517;48.400;11.770;2023-01-16T01:51:13;7.50;63.80
14850;DHT22;7517;48.400;11.770;2023-01-16T01:53:55;7.50;63.70
14850;DHT22;7517;48.400;11.770;2023-01-16T01:56:42;7.40;63.70
14850;DHT22;7517;48.400;11.770;2023-01-16T01:59:20;7.50;63.90
14850;DHT22;7517;48.400;11.770;2023-01-16T02:01:58;7.50;63.90
14850;DHT22;7517;48.400;11.770;2023-01-16T02:04:40;7.40;63.70
14850;DHT22;7517;48.400;11.770;2023-01-16T02:07:14;7.40;63.60
14850;DHT22;7517;48.400;11.770;2023-01-16T02:10:01;7.40;63.70
14850;DHT22;7517;48.400;11.770;2023-01-16T02:12:40;7.40;63.60
14850;DHT22;7517;48.400;11.770;2023-01-16T02:15:29;7.40;63.60
14850;DHT22;7517;48.400;11.770;2023-01-16T02:18:26;7.40;63.60
14850;DHT22;7517;48.400;11.770;2023-01-16T02:21:23;7.40;63.60
14850;DHT22;7517;48.400;11.770;2023-01-16T02:24:35;7.40;63.60
14850;DHT22;7517;48.400;11.770;2023-01-16T02:27:42;7.30;63.80
14850;DHT22;7517;48.400;11.770;2023-01-16T02:30:58;7.30;63.80
14850;DHT22;7517;48.400;11.770;2023-01-16T02:33:50;7.30;63.80
14850;DHT22;7517;48.400;11.770;2023-01-16T02:36:47;7.30;63.80
14850;DHT22;7517;48.400;11.770;2023-01-16T02:39:28;7.30;63.70
14850;DHT22;7517;48.400;11.770;2023-01-16T02:42:14;7.30;63.60
14850;DHT22;7517;48.400;11.770;2023-01-16T02:45:11;7.30;63.50
14850;DHT22;7517;48.400;11.770;2023-01-16T02:47:57;7.30;63.60
14850;DHT22;7517;48.400;11.770;2023-01-16T02:50:42;7.30;63.80
14850;DHT22;7517;48.400;11.770;2023-01-16T02:53:44;7.30;64.00
14850;DHT22;7517;48.400;11.770;2023-01-16T02:56:24;7.30;63.90
14850;DHT22;7517;48.400;11.770;2023-01-16T02:59:07;7.30;63.80
14850;DHT22;7517;48.400;11.770;2023-01-16T03:01:44;7.30;63.90
14850;DHT22;7517;48.400;11.770;2023-01-16T03:04:46;7.20;63.70
14850;DHT22;7517;48.400;11.770;2023-01-16T03:07:54;7.20;63.50
14850;DHT22;7517;48.400;11.770;2023-01-16T03:11:01;7.20;63.50
14850;DHT22;7517;48.400;11.770;2023-01-16T03:14:27;7.20;63.70
14850;DHT22;7517;48.400;11.770;2023-01-16T03:17:33;7.20;63.90
14850;DHT22;7517;48.400;11.770;2023-01-16T03:20:25;7.10;63.80
14850;DHT22;7517;48.400;11.770;2023-01-16T03:26:42;7.20;63.90
14850;DHT22;7517;48.400;11.770;2023-01-16T03:29:17;7.10;63.70
14850;DHT22;7517;48.400;11.770;2023-01-16T03:31:55;7.10;63.70
14850;DHT22;7517;48.400;11.770;2023-01-16T03:34:36;7.10;63.70
14850;DHT22;7517;48.400;11.770;2023-01-16T03:37:11;7.10;63.70
14850;DHT22;7517;48.400;11.770;2023-01-16T03:39:46;7.10;63.80
14850;DHT22;7517;48.400;11.770;2023-01-16T03:42:19;7.10;63.90
14850;DHT22;7517;48.400;11.770;2023-01-16T03:44:53;7.10;63.90
14850;DHT22;7517;48.400;11.770;2023-01-16T03:47:26;7.10;63.90
14850;DHT22;7517;48.400;11.770;2023-01-16T03:49:59;7.10;63.90
14850;DHT22;7517;48.400;11.770;2023-01-16T03:52:34;7.00;63.70
14850;DHT22;7517;48.400;11.770;2023-01-16T03:55:10;7.10;64.50
14850;DHT22;7517;48.400;11.770;2023-01-16T03:57:45;7.00;63.70
14850;DHT22;7517;48.400;11.770;2023-01-16T04:00:17;7.00;63.70
14850;DHT22;7517;48.400;11.770;2023-01-16T04:02:48;7.00;63.80
14850;DHT22;7517;48.400;11.770;2023-01-16T04:05:23;6.90;63.90
14850;DHT22;7517;48.400;11.770;2023-01-16T04:08:00;6.90;64.00
14850;DHT22;7517;48.400;11.770;2023-01-16T04:10:34;6.90;64.00
14850;DHT22;7517;48.400;11.770;2023-01-16T04:13:05;6.80;64.00
14850;DHT22;7517;48.400;11.770;2023-01-16T04:15:38;6.80;64.00
14850;DHT22;7517;48.400;11.770;2023-01-16T04:18:08;6.80;64.00
14850;DHT22;7517;48.400;11.770;2023-01-16T04:20:37;6.80;63.90
14850;DHT22;7517;48.400;11.770;2023-01-16T04:23:09;6.80;63.80
14850;DHT22;7517;48.400;11.770;2023-01-16T04:25:38;6.70;63.80
14850;DHT22;7517;48.400;11.770;2023-01-16T04:28:05;6.70;64.00
14850;DHT22;7517;48.400;11.770;2023-01-16T04:30:33;6.70;64.10
14850;DHT22;7517;48.400;11.770;2023-01-16T04:33:01;6.60;63.90
14850;DHT22;7517;48.400;11.770;2023-01-16T04:35:29;6.60;64.00
14850;DHT22;7517;48.400;11.770;2023-01-16T04:37:56;6.50;64.10
14850;DHT22;7517;48.400;11.770;2023-01-16T04:40:29;6.50;64.20
14850;DHT22;7517;48.400;11.770;2023-01-16T04:42:56;6.50;64.40
14850;DHT22;7517;48.400;11.770;2023-01-16T04:45:23;6.50;64.50
14850;DHT22;7517;48.400;11.770;2023-01-16T04:47:51;6.50;64.50
14850;DHT22;7517;48.400;11.770;2023-01-16T04:50:20;6.40;64.60
14850;DHT22;7517;48.400;11.770;2023-01-16T04:52:47;6.40;64.60
14850;DHT22;7517;48.400;11.770;2023-01-16T04:55:15;6.40;64.60
14850;DHT22;7517;48.400;11.770;2023-01-16T04:57:44;6.30;64.50
14850;DHT22;7517;48.400;11.770;2023-01-16T05:00:12;6.30;64.60
14850;DHT22;7517;48.400;11.770;2023-01-16T05:02:40;6.30;64.70
14850;DHT22;7517;48.400;11.770;2023-01-16T05:05:08;6.20;64.60
14850;DHT22;7517;48.400;11.770;2023-01-16T05:07:35;6.20;64.40
14850;DHT22;7517;48.400;11.770;2023-01-16T05:10:02;6.20;64.40
14850;DHT22;7517;48.400;11.770;2023-01-16T05:12:30;6.10;65.10
14850;DHT22;7517;48.400;11.770;2023-01-16T05:14:58;6.10;64.40
14850;DHT22;7517;48.400;11.770;2023-01-16T05:17:27;6.00;64.50
14850;DHT22;7517;48.400;11.770;2023-01-16T05:19:54;6.00;64.80
14850;DHT22;7517;48.400;11.770;2023-01-16T05:22:21;6.00;64.80
14850;DHT22;7517;48.400;11.770;2023-01-16T05:24:48;5.90;64.90
14850;DHT22;7517;48.400;11.770;2023-01-16T05:27:15;5.90;65.00
14850;DHT22;7517;48.400;11.770;2023-01-16T05:29:43;5.90;65.10
14850;DHT22;7517;48.400;11.770;2023-01-16T05:32:11;5.80;65.00
14850;DHT22;7517;48.400;11.770;2023-01-16T05:34:38;5.80;65.00
14850;DHT22;7517;48.400;11.770;2023-01-16T05:37:05;5.80;65.10
14850;DHT22;7517;48.400;11.770;2023-01-16T05:39:32;5.70;65.10
14850;DHT22;7517;48.400;11.770;2023-01-16T05:42:00;5.80;65.30
14850;DHT22;7517;48.400;11.770;2023-01-16T05:44:27;5.70;65.30
14850;DHT22;7517;48.400;11.770;2023-01-16T05:46:55;5.60;65.30
14850;DHT22;7517;48.400;11.770;2023-01-16T05:49:23;5.60;65.20
14850;DHT22;7517;48.400;11.770;2023-01-16T05:51:51;5.60;65.30
14850;DHT22;7517;48.400;11.770;2023-01-16T05:54:18;5.60;65.50
14850;DHT22;7517;48.400;11.770;2023-01-16T05:56:46;5.60;65.60
14850;DHT22;7517;48.400;11.770;2023-01-16T05:59:14;5.50;65.70
14850;DHT22;7517;48.400;11.770;2023-01-16T06:01:41;5.50;65.70
14850;DHT22;7517;48.400;11.770;2023-01-16T06:04:08;5.50;65.70
14850;DHT22;7517;48.400;11.770;2023-01-16T06:06:36;5.50;65.70
14850;DHT22;7517;48.400;11.770;2023-01-16T06:09:04;5.50;65.80
14850;DHT22;7517;48.400;11.770;2023-01-16T06:11:33;5.50;65.60
14850;DHT22;7517;48.400;11.770;2023-01-16T06:14:01;5.50;65.80
14850;DHT22;7517;48.400;11.770;2023-01-16T06:16:30;5.50;66.00
14850;DHT22;7517;48.400;11.770;2023-01-16T06:18:57;5.40;65.90
14850;DHT22;7517;48.400;11.770;2023-01-16T06:21:25;5.40;66.00
14850;DHT22;7517;48.400;11.770;2023-01-16T06:23:53;5.50;66.10
14850;DHT22;7517;48.400;11.770;2023-01-16T06:26:20;5.40;65.80
14850;DHT22;7517;48.400;11.770;2023-01-16T06:28:48;5.40;65.50
14850;DHT22;7517;48.400;11.770;2023-01-16T06:31:17;5.30;65.40
14850;DHT22;7517;48.400;11.770;2023-01-16T06:33:44;5.30;65.40
14850;DHT22;7517;48.400;11.770;2023-01-16T06:36:12;5.30;65.40
14850;DHT22;7517;48.400;11.770;2023-01-16T06:38:39;5.20;65.50
14850;DHT22;7517;48.400;11.770;2023-01-16T06:41:07;5.20;65.80
14850;DHT22;7517;48.400;11.770;2023-01-16T06:43:36;5.20;65.80
14850;DHT22;7517;48.400;11.770;2023-01-16T06:46:03;5.10;65.80
14850;DHT22;7517;48.400;11.770;2023-01-16T06:48:30;5.10;66.10
14850;DHT22;7517;48.400;11.770;2023-01-16T06:50:58;5.10;66.20
14850;DHT22;7517;48.400;11.770;2023-01-16T06:53:25;5.10;66.40
14850;DHT22;7517;48.400;11.770;2023-01-16T06:55:53;5.10;66.50
14850;DHT22;7517;48.400;11.770;2023-01-16T06:58:22;5.10;66.60
14850;DHT22;7517;48.400;11.770;2023-01-16T07:00:49;5.10;66.50
14850;DHT22;7517;48.400;11.770;2023-01-16T07:03:17;5.10;66.40
14850;DHT22;7517;48.400;11.770;2023-01-16T07:05:44;5.10;66.40
14850;DHT22;7517;48.400;11.770;2023-01-16T07:08:14;5.10;66.40
14850;DHT22;7517;48.400;11.770;2023-01-16T07:10:42;5.00;66.30
14850;DHT22;7517;48.400;11.770;2023-01-16T07:13:09;5.10;66.50
14850;DHT22;7517;48.400;11.770;2023-01-16T07:15:38;5.00;66.60
14850;DHT22;7517;48.400;11.770;2023-01-16T07:18:22;5.10;67.00
14850;DHT22;7517;48.400;11.770;2023-01-16T07:21:11;5.00;66.90
14850;DHT22;7517;48.400;11.770;2023-01-16T07:24:00;5.00;66.90
14850;DHT22;7517;48.400;11.770;2023-01-16T07:26:30;4.90;67.60
14850;DHT22;7517;48.400;11.770;2023-01-16T07:29:01;4.90;66.90
14850;DHT22;7517;48.400;11.770;2023-01-16T07:31:33;4.90;67.00
14850;DHT22;7517;48.400;11.770;2023-01-16T07:34:02;4.90;67.00
14850;DHT22;7517;48.400;11.770;2023-01-16T07:36:29;4.90;66.90
14850;DHT22;7517;48.400;11.770;2023-01-16T07:38:57;4.90;67.00
14850;DHT22;7517;48.400;11.770;2023-01-16T07:41:24;4.90;67.00
14850;DHT22;7517;48.400;11.770;2023-01-16T07:43:57;4.90;67.10
14850;DHT22;7517;48.400;11.770;2023-01-16T07:46:24;4.90;67.10
14850;DHT22;7517;48.400;11.770;2023-01-16T07:48:56;4.90;67.20
14850;DHT22;7517;48.400;11.770;2023-01-16T07:51:23;4.90;67.40
14850;DHT22;7517;48.400;11.770;2023-01-16T07:53:51;4.90;67.30
14850;DHT22;7517;48.400;11.770;2023-01-16T07:56:18;4.90;67.40
14850;DHT22;7517;48.400;11.770;2023-01-16T07:58:46;4.90;67.50
14850;DHT22;7517;48.400;11.770;2023-01-16T08:01:16;4.90;67.50
14850;DHT22;7517;48.400;11.770;2023-01-16T08:03:43;5.00;67.50
14850;DHT22;7517;48.400;11.770;2023-01-16T08:06:12;5.00;67.60
14850;DHT22;7517;48.400;11.770;2023-01-16T08:08:39;5.00;67.70
14850;DHT22;7517;48.400;11.770;2023-01-16T08:11:06;5.00;67.90
14850;DHT22;7517;48.400;11.770;2023-01-16T08:13:47;5.00;67.90
14850;DHT22;7517;48.400;11.770;2023-01-16T08:16:14;5.10;68.00
14850;DHT22;7517;48.400;11.770;2023-01-16T08:18:41;5.10;68.10
14850;DHT22;7517;48.400;11.770;2023-01-16T08:21:09;5.10;68.20
14850;DHT22;7517;48.400;11.770;2023-01-16T08:23:37;5.10;68.30
14850;DHT22;7517;48.400;11.770;2023-01-16T08:26:05;5.20;68.50
14850;DHT22;7517;48.400;11.770;2023-01-16T08:28:35;5.20;68.40
14850;DHT22;7517;48.400;11.770;2023-01-16T08:31:04;5.30;68.50
14850;DHT22;7517;48.400;11.770;2023-01-16T08:33:34;5.30;68.60
14850;DHT22;7517;48.400;11.770;2023-01-16T08:36:03;5.40;68.80
14850;DHT22;7517;48.400;11.770;2023-01-16T08:38:34;5.40;68.80
14850;DHT22;7517;48.400;11.770;2023-01-16T08:41:03;5.50;69.00
14850;DHT22;7517;48.400;11.770;2023-01-16T08:43:51;5.60;69.10
14850;DHT22;7517;48.400;11.770;2023-01-16T08:46:36;5.60;69.00
14850;DHT22;7517;48.400;11.770;2023-01-16T08:49:20;5.70;69.00
14850;DHT22;7517;48.400;11.770;2023-01-16T08:52:06;5.80;69.00
14850;DHT22;7517;48.400;11.770;2023-01-16T08:54:34;5.90;69.00
14850;DHT22;7517;48.400;11.770;2023-01-16T08:57:06;6.00;68.90
14850;DHT22;7517;48.400;11.770;2023-01-16T08:59:35;6.00;68.70
14850;DHT22;7517;48.400;11.770;2023-01-16T09:02:03;6.10;68.70
14850;DHT22;7517;48.400;11.770;2023-01-16T09:04:34;6.20;69.40
14850;DHT22;7517;48.400;11.770;2023-01-16T09:07:01;6.30;68.50
14850;DHT22;7517;48.400;11.770;2023-01-16T09:09:29;6.40;68.50
14850;DHT22;7517;48.400;11.770;2023-01-16T09:11:57;6.40;69.20
14850;DHT22;7517;48.400;11.770;2023-01-16T09:14:43;6.50;69.10
14850;DHT22;7517;48.400;11.770;2023-01-16T09:17:13;6.60;68.20
14850;DHT22;7517;48.400;11.770;2023-01-16T09:19:40;6.70;68.20
14850;DHT22;7517;48.400;11.770;2023-01-16T09:22:07;6.80;68.20
14850;DHT22;7517;48.400;11.770;2023-01-16T09:24:35;6.90;68.00
14850;DHT22;7517;48.400;11.770;2023-01-16T09:27:02;7.00;67.90
14850;DHT22;7517;48.400;11.770;2023-01-16T09:29:30;7.10;67.70
14850;DHT22;7517;48.400;11.770;2023-01-16T09:31:59;7.20;67.70
14850;DHT22;7517;48.400;11.770;2023-01-16T09:34:32;7.20;67.60
14850;DHT22;7517;48.400;11.770;2023-01-16T09:36:59;7.30;67.40
14850;DHT22;7517;48.400;11.770;2023-01-16T09:43:02;7.50;67.00
14850;DHT22;7517;48.400;11.770;2023-01-16T09:45:59;7.60;67.20
14850;DHT22;7517;48.400;11.770;2023-01-16T09:48:32;7.80;67.50
14850;DHT22;7517;48.400;11.770;2023-01-16T09:51:14;7.90;67.70
14850;DHT22;7517;48.400;11.770;2023-01-16T09:53:50;8.10;67.80
14850;DHT22;7517;48.400;11.770;2023-01-16T09:56:50;8.30;68.00
14850;DHT22;7517;48.400;11.770;2023-01-16T09:59:49;8.50;68.20
14850;DHT22;7517;48.400;11.770;2023-01-16T10:02:27;8.70;67.80
14850;DHT22;7517;48.400;11.770;2023-01-16T10:05:06;9.00;67.70
14850;DHT22;7517;48.400;11.770;2023-01-16T10:07:52;9.20;67.60
14850;DHT22;7517;48.400;11.770;2023-01-16T10:10:43;9.40;66.70
14850;DHT22;7517;48.400;11.770;2023-01-16T10:13:51;9.60;66.50
14850;DHT22;7517;48.400;11.770;2023-01-16T10:16:51;9.80;66.10
14850;DHT22;7517;48.400;11.770;2023-01-16T10:19:45;10.10;66.10
14850;DHT22;7517;48.400;11.770;2023-01-16T10:22:48;10.30;65.80
14850;DHT22;7517;48.400;11.770;2023-01-16T10:25:30;10.50;65.40
14850;DHT22;7517;48.400;11.770;2023-01-16T10:28:28;10.70;64.80
14850;DHT22;7517;48.400;11.770;2023-01-16T10:31:26;10.80;63.50
14850;DHT22;7517;48.400;11.770;2023-01-16T10:34:05;10.90;63.40
14850;DHT22;7517;48.400;11.770;2023-01-16T10:36:42;11.00;63.10
14850;DHT22;7517;48.400;11.770;2023-01-16T10:39:34;11.10;62.30
14850;DHT22;7517;48.400;11.770;2023-01-16T10:42:12;11.10;61.40
14850;DHT22;7517;48.400;11.770;2023-01-16T10:45:19;11.10;61.50
14850;DHT22;7517;48.400;11.770;2023-01-16T10:48:10;11.10;61.40
14850;DHT22;7517;48.400;11.770;2023-01-16T10:51:02;11.10;61.20
14850;DHT22;7517;48.400;11.770;2023-01-16T10:53:39;11.10;61.00
14850;DHT22;7517;48.400;11.770;2023-01-16T10:56:21;11.10;60.50
14850;DHT22;7517;48.400;11.770;2023-01-16T10:58:58;11.10;60.10
14850;DHT22;7517;48.400;11.770;2023-01-16T11:01:27;11.00;60.10
14850;DHT22;7517;48.400;11.770;2023-01-16T11:04:05;11.00;60.30
14850;DHT22;7517;48.400;11.770;2023-01-16T11:06:38;11.00;60.00
14850;DHT22;7517;48.400;11.770;2023-01-16T11:09:18;10.90;59.80
14850;DHT22;7517;48.400;11.770;2023-01-16T11:11:50;10.90;59.80
14850;DHT22;7517;48.400;11.770;2023-01-16T11:14:41;10.80;59.80
14850;DHT22;7517;48.400;11.770;2023-01-16T11:17:50;10.80;59.70
14850;DHT22;7517;48.400;11.770;2023-01-16T11:23:57;10.70;59.80
14850;DHT22;7517;48.400;11.770;2023-01-16T11:26:32;10.70;59.90
14850;DHT22;7517;48.400;11.770;2023-01-16T11:29:26;10.70;60.10
14850;DHT22;7517;48.400;11.770;2023-01-16T11:31:59;10.60;60.00
14850;DHT22;7517;48.400;11.770;2023-01-16T11:34:33;10.60;60.00
14850;DHT22;7517;48.400;11.770;2023-01-16T11:37:12;10.60;59.90
14850;DHT22;7517;48.400;11.770;2023-01-16T11:39:41;10.70;60.40
14850;DHT22;7517;48.400;11.770;2023-01-16T11:42:19;10.70;60.00
14850;DHT22;7517;48.400;11.770;2023-01-16T11:45:15;10.70;59.80
14850;DHT22;7517;48.400;11.770;2023-01-16T11:48:08;10.70;59.60
14850;DHT22;7517;48.400;11.770;2023-01-16T11:51:02;10.70;59.70
14850;DHT22;7517;48.400;11.770;2023-01-16T11:53:40;10.70;59.60
14850;DHT22;7517;48.400;11.770;2023-01-16T11:56:47;10.80;59.70
14850;DHT22;7517;48.400;11.770;2023-01-16T12:02:59;10.80;59.50
14850;DHT22;7517;48.400;11.770;2023-01-16T12:05:49;10.90;59.50
14850;DHT22;7517;48.400;11.770;2023-01-16T12:09:03;10.90;59.60
14850;DHT22;7517;48.400;11.770;2023-01-16T12:15:20;10.90;59.60
14850;DHT22;7517;48.400;11.770;2023-01-16T12:18:07;10.90;59.60
14850;DHT22;7517;48.400;11.770;2023-01-16T12:20:52;10.90;59.40
14850;DHT22;7517;48.400;11.770;2023-01-16T12:23:46;10.90;59.50
14850;DHT22;7517;48.400;11.770;2023-01-16T12:26:49;10.80;59.50
14850;DHT22;7517;48.400;11.770;2023-01-16T12:29:39;10.80;59.60
14850;DHT22;7517;48.400;11.770;2023-01-16T12:32:40;10.80;60.50
14850;DHT22;7517;48.400;11.770;2023-01-16T12:35:40;10.80;59.70
14850;DHT22;7517;48.400;11.770;2023-01-16T12:38:16;10.90;59.60
14850;DHT22;7517;48.400;11.770;2023-01-16T12:41:16;10.80;59.60
14850;DHT22;7517;48.400;11.770;2023-01-16T12:44:16;10.90;59.60
14850;DHT22;7517;48.400;11.770;2023-01-16T12:47:05;10.90;59.90
14850;DHT22;7517;48.400;11.770;2023-01-16T12:50:07;10.90;59.70
14850;DHT22;7517;48.400;11.770;2023-01-16T12:53:03;10.90;59.80
14850;DHT22;7517;48.400;11.770;2023-01-16T12:56:14;10.90;59.80
14850;DHT22;7517;48.400;11.770;2023-01-16T12:59:13;10.90;59.60
14850;DHT22;7517;48.400;11.770;2023-01-16T13:01:52;11.00;59.80
14850;DHT22;7517;48.400;11.770;2023-01-16T13:04:37;11.00;59.90
14850;DHT22;7517;48.400;11.770;2023-01-16T13:07:17;11.00;59.60
14850;DHT22;7517;48.400;11.770;2023-01-16T13:10:04;11.00;59.70
14850;DHT22;7517;48.400;11.770;2023-01-16T13:12:57;11.10;59.60
14850;DHT22;7517;48.400;11.770;2023-01-16T13:15:45;11.10;60.00
14850;DHT22;7517;48.400;11.770;2023-01-16T13:18:19;11.10;59.90
14850;DHT22;7517;48.400;11.770;2023-01-16T13:20:52;11.10;59.60
14850;DHT22;7517;48.400;11.770;2023-01-16T13:23:24;11.20;59.50
14850;DHT22;7517;48.400;11.770;2023-01-16T13:25:57;11.20;59.60
14850;DHT22;7517;48.400;11.770;2023-01-16T13:28:36;11.20;59.40
14850;DHT22;7517;48.400;11.770;2023-01-16T13:31:18;11.20;59.40
14850;DHT22;7517;48.400;11.770;2023-01-16T13:33:55;11.30;59.40
14850;DHT22;7517;48.400;11.770;2023-01-16T13:36:43;11.30;59.60
14850;DHT22;7517;48.400;11.770;2023-01-16T13:42:58;11.30;59.30
14850;DHT22;7517;48.400;11.770;2023-01-16T13:45:43;11.40;59.60
14850;DHT22;7517;48.400;11.770;2023-01-16T13:48:19;11.40;59.60
14850;DHT22;7517;48.400;11.770;2023-01-16T13:50:52;11.40;59.50
14850;DHT22;7517;48.400;11.770;2023-01-16T13:53:25;11.40;59.50
14850;DHT22;7517;48.400;11.770;2023-01-16T13:56:04;11.40;59.50
14850;DHT22;7517;48.400;11.770;2023-01-16T13:58:38;11.40;59.50
14850;DHT22;7517;48.400;11.770;2023-01-16T14:01:31;11.40;59.50
14850;DHT22;7517;48.400;11.770;2023-01-16T14:04:28;11.40;59.30
14850;DHT22;7517;48.400;11.770;2023-01-16T14:06:59;11.40;59.50
14850;DHT22;7517;48.400;11.770;2023-01-16T14:10:06;11.40;59.50
14850;DHT22;7517;48.400;11.770;2023-01-16T14:12:43;11.40;59.40
14850;DHT22;7517;48.400;11.770;2023-01-16T14:15:46;11.40;59.50
14850;DHT22;7517;48.400;11.770;2023-01-16T14:18:41;11.50;59.70
14850;DHT22;7517;48.400;11.770;2023-01-16T14:21:26;11.40;59.00
14850;DHT22;7517;48.400;11.770;2023-01-16T14:24:10;11.40;59.20
14850;DHT22;7517;48.400;11.770;2023-01-16T14:26:44;11.40;59.20
14850;DHT22;7517;48.400;11.770;2023-01-16T14:29:18;11.40;59.10
14850;DHT22;7517;48.400;11.770;2023-01-16T14:31:55;11.40;58.70
14850;DHT22;7517;48.400;11.770;2023-01-16T14:34:26;11.40;58.40
14850;DHT22;7517;48.400;11.770;2023-01-16T14:37:04;11.40;58.40
14850;DHT22;7517;48.400;11.770;2023-01-16T14:39:34;11.40;58.80
14850;DHT22;7517;48.400;11.770;2023-01-16T14:42:08;11.40;58.90
14850;DHT22;7517;48.400;11.770;2023-01-16T14:45:18;11.40;58.70
14850;DHT22;7517;48.400;11.770;2023-01-16T14:48:34;11.40;58.20
14850;DHT22;7517;48.400;11.770;2023-01-16T14:51:30;11.40;58.20
14850;DHT22;7517;48.400;11.770;2023-01-16T14:54:19;11.40;58.20
14850;DHT22;7517;48.400;11.770;2023-01-16T14:57:09;11.40;58.20
14850;DHT22;7517;48.400;11.770;2023-01-16T14:59:42;11.40;58.20
14850;DHT22;7517;48.400;11.770;2023-01-16T15:02:17;11.30;58.10
14850;DHT22;7517;48.400;11.770;2023-01-16T15:05:01;11.30;58.00
14850;DHT22;7517;48.400;11.770;2023-01-16T15:07:38;11.30;57.90
14850;DHT22;7517;48.400;11.770;2023-01-16T15:10:11;11.30;57.90
14850;DHT22;7517;48.400;11.770;2023-01-16T15:12:44;11.30;58.00
14850;DHT22;7517;48.400;11.770;2023-01-16T15:15:23;11.20;58.00
14850;DHT22;7517;48.400;11.770;2023-01-16T15:17:53;11.20;58.30
14850;DHT22;7517;48.400;11.770;2023-01-16T15:20:41;11.20;58.40
14850;DHT22;7517;48.400;11.770;2023-01-16T15:23:29;11.20;58.40
14850;DHT22;7517;48.400;11.770;2023-01-16T15:26:21;11.20;58.50
14850;DHT22;7517;48.400;11.770;2023-01-16T15:32:15;11.10;58.90
14850;DHT22;7517;48.400;11.770;2023-01-16T15:34:47;11.10;59.00
14850;DHT22;7517;48.400;11.770;2023-01-16T15:37:31;11.10;59.10
14850;DHT22;7517;48.400;11.770;2023-01-16T15:39:58;11.00;58.90
14850;DHT22;7517;48.400;11.770;2023-01-16T15:42:28;11.00;58.80
14850;DHT22;7517;48.400;11.770;2023-01-16T15:45:19;11.00;58.90
14850;DHT22;7517;48.400;11.770;2023-01-16T15:48:31;11.00;58.80
14850;DHT22;7517;48.400;11.770;2023-01-16T15:51:09;11.00;59.00
14850;DHT22;7517;48.400;11.770;2023-01-16T15:53:43;10.90;59.20
14850;DHT22;7517;48.400;11.770;2023-01-16T15:56:19;10.90;59.20
14850;DHT22;7517;48.400;11.770;2023-01-16T15:58:48;10.80;59.10
14850;DHT22;7517;48.400;11.770;2023-01-16T16:01:25;10.80;59.20
14850;DHT22;7517;48.400;11.770;2023-01-16T16:03:54;10.70;59.20
14850;DHT22;7517;48.400;11.770;2023-01-16T16:06:24;10.70;59.20
14850;DHT22;7517;48.400;11.770;2023-01-16T16:08:56;10.60;59.20
14850;DHT22;7517;48.400;11.770;2023-01-16T16:11:25;10.60;59.30
14850;DHT22;7517;48.400;11.770;2023-01-16T16:14:15;10.50;59.30
14850;DHT22;7517;48.400;11.770;2023-01-16T16:17:16;10.50;59.30
14850;DHT22;7517;48.400;11.770;2023-01-16T16:20:30;10.40;59.40
14850;DHT22;7517;48.400;11.770;2023-01-16T16:23:04;10.40;59.80
14850;DHT22;7517;48.400;11.770;2023-01-16T16:25:45;10.30;59.80
14850;DHT22;7517;48.400;11.770;2023-01-16T16:28:21;10.20;59.80
14850;DHT22;7517;48.400;11.770;2023-01-16T16:30:55;10.20;59.90
14850;DHT22;7517;48.400;11.770;2023-01-16T16:33:24;10.10;60.00
14850;DHT22;7517;48.400;11.770;2023-01-16T16:35:55;10.10;60.00
14850;DHT22;7517;48.400;11.770;2023-01-16T16:38:25;10.00;59.90
14850;DHT22;7517;48.400;11.770;2023-01-16T16:41:43;10.00;59.90
14850;DHT22;7517;48.400;11.770;2023-01-16T16:44:35;10.00;60.10
14850;DHT22;7517;48.400;11.770;2023-01-16T16:50:00;9.80;60.00
14850;DHT22;7517;48.400;11.770;2023-01-16T16:52:31;9.70;60.00
14850;DHT22;7517;48.400;11.770;2023-01-16T16:55:25;9.70;60.20
14850;DHT22;7517;48.400;11.770;2023-01-16T16:57:57;9.60;60.50
14850;DHT22;7517;48.400;11.770;2023-01-16T17:00:27;9.60;60.70
14850;DHT22;7517;48.400;11.770;2023-01-16T17:03:01;9.50;60.70
14850;DHT22;7517;48.400;11.770;2023-01-16T17:05:31;9.50;60.80
14850;DHT22;7517;48.400;11.770;2023-01-16T17:07:59;9.50;60.70
14850;DHT22;7517;48.400;11.770;2023-01-16T17:10:26;9.40;60.70
14850;DHT22;7517;48.400;11.770;2023-01-16T17:12:54;9.40;61.10
14850;DHT22;7517;48.400;11.770;2023-01-16T17:15:23;9.40;61.10
14850;DHT22;7517;48.400;11.770;2023-01-16T17:17:50;9.40;61.10
14850;DHT22;7517;48.400;11.770;2023-01-16T17:20:24;9.30;60.90